Portada
METAR-TAF:

METAR-TAF

Aeroports :

Blackpool, Anglaterra

latitud: 53-46N, longitud: 003-02W, altitud: 10 m

Observació

L'informe es va fer fa 15 minuts, a les 13:50 UTC
Vent 29 kt del Oest/Sud-Oest
Temperatura 9°C
Humitat 87%
Pressió 1012 hPa
Visibilitat: 6000 m
Núvols disperses a una alçada de 1700 ft
Cel cobert a una alçada de 3500 ft
pluja

METAR: EGNH 211350Z 24029KT 6000 RA SCT017 OVC035 09/07 Q1012

Hora: 14:05 (14:05 UTC)

Pronòstic

L'informe es va fer fa 38 minuts, a les 13:27 UTC
Pronòstic vàlid del 21 a les 13 UTC al 21 a les 21 UTC
Vent 20 kt del Sud/Sud-Oest amb ràfegues de 32 kt
Visibilitat 10 km o més
Núvols disperses a una alçada de 3000 ft
Temporalment
l' 21 a les 13 UTC al 21 a les 21 UTC
Vent 28 kt del Sud-Oest amb ràfegues de 42 kt
Visibilitat: 6000 m
pluja

TAF: EGNH 211327Z 2113/2121 21020G32KT 9999 SCT030 TEMPO 2113/2121 22028G42KT 6000 RA

Observacions i pronòstics meteorològics de més de 4000 aeroports (METAR i TAF).

Les estacions disponibles són els punts grocs i vermells al mapa.

Posi el ratolí al punt desitjat per veure el nom de l'estació.

Feu clic per veure les observacions i els pronòstics meteorològics.

Per canviar el mapa: feu clic els botons verds amb una creu de color negre per apropar; al botó verd amb un guió per allunyar la imatge; o en les fletxes verdes per a mapes adjacents.


METAR-TAF: